createdAt,value
2022-12-11T00:01:29.389Z,19.00
2022-12-11T00:04:01.525Z,11.90
2022-12-11T00:06:34.621Z,16.60
2022-12-11T00:09:06.841Z,16.50
2022-12-11T00:11:39.004Z,16.50
2022-12-11T00:16:43.297Z,14.50
2022-12-11T00:19:15.812Z,13.20
2022-12-11T00:21:48.122Z,18.10
2022-12-11T00:24:20.239Z,17.10
2022-12-11T00:29:22.995Z,13.00
2022-12-11T00:34:25.692Z,14.30
2022-12-11T00:39:52.904Z,14.90
2022-12-11T00:42:25.032Z,15.00
2022-12-11T00:47:28.922Z,13.60
2022-12-11T00:52:32.161Z,12.10
2022-12-11T00:57:34.954Z,15.50
2022-12-11T01:02:39.274Z,10.10
2022-12-11T01:05:12.480Z,11.90
2022-12-11T01:07:44.956Z,10.30
2022-12-11T01:10:33.480Z,14.00
2022-12-11T01:13:07.938Z,15.20
2022-12-11T01:15:43.644Z,15.20
2022-12-11T01:18:16.964Z,14.10
2022-12-11T01:20:49.067Z,14.80
2022-12-11T01:25:52.345Z,12.90
2022-12-11T01:28:24.598Z,13.00
2022-12-11T01:33:27.230Z,10.20
2022-12-11T01:38:30.236Z,10.80
2022-12-11T01:41:02.283Z,9.90
2022-12-11T01:46:05.367Z,13.70
2022-12-11T01:48:42.103Z,13.00
2022-12-11T01:51:15.477Z,13.40
2022-12-11T01:53:53.886Z,10.70
2022-12-11T01:56:26.602Z,15.30
2022-12-11T01:59:02.887Z,13.00
2022-12-11T02:01:39.166Z,9.20
2022-12-11T02:04:12.458Z,12.90
2022-12-11T02:06:46.890Z,13.80
2022-12-11T02:09:21.226Z,13.20
2022-12-11T02:12:02.565Z,12.90
2022-12-11T02:14:40.163Z,12.50
2022-12-11T02:17:18.131Z,11.30
2022-12-11T02:20:03.446Z,11.60
2022-12-11T02:23:00.151Z,12.00
2022-12-11T02:25:38.093Z,12.90
2022-12-11T02:28:25.198Z,11.30
2022-12-11T02:31:03.803Z,14.50
2022-12-11T02:33:43.400Z,11.30
2022-12-11T02:36:18.685Z,13.10
2022-12-11T02:38:54.368Z,9.30
2022-12-11T02:41:30.107Z,12.60
2022-12-11T02:44:03.720Z,14.30
2022-12-11T02:46:38.011Z,12.00
2022-12-11T02:49:12.766Z,10.00
2022-12-11T02:51:45.701Z,13.20
2022-12-11T02:54:21.810Z,13.90
2022-12-11T02:56:59.046Z,13.10
2022-12-11T02:59:37.057Z,14.80
2022-12-11T03:02:09.561Z,11.00
2022-12-11T03:04:43.141Z,10.60
2022-12-11T03:07:19.888Z,13.90
2022-12-11T03:09:53.131Z,13.00
2022-12-11T03:12:29.186Z,13.00
2022-12-11T03:15:05.586Z,13.90
2022-12-11T03:17:45.527Z,11.70
2022-12-11T03:20:26.494Z,14.00
2022-12-11T03:23:03.607Z,13.20
2022-12-11T03:25:43.701Z,9.50
2022-12-11T03:28:20.777Z,14.80
2022-12-11T03:30:54.962Z,10.60
2022-12-11T03:33:32.803Z,13.00
2022-12-11T03:36:10.865Z,10.50
2022-12-11T03:38:49.201Z,13.80
2022-12-11T03:41:25.818Z,15.50
2022-12-11T03:44:00.049Z,13.70
2022-12-11T03:46:35.319Z,14.50
2022-12-11T03:49:11.867Z,13.60
2022-12-11T03:51:45.792Z,14.80
2022-12-11T03:54:18.638Z,14.70
2022-12-11T03:56:52.216Z,16.80
2022-12-11T03:59:24.768Z,14.50
2022-12-11T04:01:56.975Z,13.10
2022-12-11T04:04:29.149Z,13.10
2022-12-11T04:09:31.858Z,12.40
2022-12-11T04:12:03.846Z,17.30
2022-12-11T04:14:53.616Z,15.70
2022-12-11T04:17:43.149Z,13.50
2022-12-11T04:20:32.658Z,15.30
2022-12-11T04:23:24.646Z,13.30
2022-12-11T04:26:04.369Z,15.70
2022-12-11T04:28:37.289Z,15.00
2022-12-11T04:31:12.189Z,11.40
2022-12-11T04:33:44.554Z,13.20
2022-12-11T04:36:17.036Z,16.20
2022-12-11T04:38:49.075Z,13.40
2022-12-11T04:41:21.271Z,12.90
2022-12-11T04:43:53.616Z,12.20
2022-12-11T04:48:58.146Z,15.20
2022-12-11T04:51:30.944Z,16.70
2022-12-11T04:54:03.081Z,15.90
2022-12-11T04:56:35.275Z,14.10
2022-12-11T05:01:37.882Z,11.50
2022-12-11T05:04:10.902Z,15.60
2022-12-11T05:06:43.960Z,17.50
2022-12-11T05:09:16.180Z,22.80
2022-12-11T05:11:49.326Z,15.20
2022-12-11T05:14:21.566Z,18.60
2022-12-11T05:16:53.618Z,15.80
2022-12-11T05:19:25.714Z,15.90
2022-12-11T05:24:28.532Z,17.00
2022-12-11T05:29:31.003Z,18.10
2022-12-11T05:32:03.111Z,17.50
2022-12-11T05:34:35.443Z,23.30
2022-12-11T05:39:40.222Z,16.10
2022-12-11T05:42:12.569Z,15.80
2022-12-11T05:44:44.741Z,15.90
2022-12-11T05:47:17.024Z,13.80
2022-12-11T05:52:20.019Z,11.80
2022-12-11T05:54:52.578Z,22.60
2022-12-11T05:57:24.688Z,15.40
2022-12-11T05:59:56.976Z,16.50
2022-12-11T06:02:29.233Z,16.50
2022-12-11T06:05:01.439Z,18.40
2022-12-11T06:07:34.712Z,14.20
2022-12-11T06:10:07.777Z,15.30
2022-12-11T06:12:40.975Z,18.20
2022-12-11T06:15:13.670Z,13.20
2022-12-11T06:17:45.969Z,12.10
2022-12-11T06:22:49.284Z,17.10
2022-12-11T06:25:21.443Z,16.90
2022-12-11T06:30:37.541Z,14.90
2022-12-11T06:33:12.073Z,11.80
2022-12-11T06:35:44.597Z,14.20
2022-12-11T06:40:47.639Z,18.80
2022-12-11T06:43:19.753Z,16.30
2022-12-11T06:45:51.989Z,16.30
2022-12-11T06:50:55.023Z,18.60
2022-12-11T06:53:27.149Z,14.50
2022-12-11T06:56:07.374Z,20.10
2022-12-11T06:58:40.113Z,17.50
2022-12-11T07:01:19.904Z,17.00
2022-12-11T07:03:53.745Z,19.80
2022-12-11T07:06:26.582Z,16.80
2022-12-11T07:08:59.128Z,18.60
2022-12-11T07:11:31.369Z,13.70
2022-12-11T07:14:03.652Z,14.90
2022-12-11T07:16:36.247Z,14.60
2022-12-11T07:19:08.857Z,15.10
2022-12-11T07:21:41.022Z,13.20
2022-12-11T07:26:43.724Z,15.40
2022-12-11T07:29:16.723Z,14.20
2022-12-11T07:31:49.636Z,15.90
2022-12-11T07:34:22.034Z,20.20
2022-12-11T07:36:54.081Z,20.50
2022-12-11T07:39:27.131Z,21.60
2022-12-11T07:41:59.291Z,22.00
2022-12-11T07:44:31.996Z,18.10
2022-12-11T07:47:04.756Z,16.00
2022-12-11T07:49:37.032Z,19.70
2022-12-11T07:54:41.713Z,14.90
2022-12-11T07:57:14.448Z,15.00
2022-12-11T07:59:47.846Z,15.90
2022-12-11T08:02:20.776Z,16.10
2022-12-11T08:04:53.635Z,19.50
2022-12-11T08:07:26.403Z,16.70
2022-12-11T08:09:59.601Z,21.60
2022-12-11T08:12:31.577Z,19.00
2022-12-11T08:15:04.464Z,20.00
2022-12-11T08:17:40.167Z,15.40
2022-12-11T08:20:13.436Z,19.00
2022-12-11T08:22:46.141Z,14.30
2022-12-11T08:25:19.911Z,22.10
2022-12-11T08:27:52.483Z,20.10
2022-12-11T08:30:25.558Z,22.90
2022-12-11T08:32:57.974Z,26.50
2022-12-11T08:35:30.504Z,26.50
2022-12-11T08:38:02.672Z,27.50
2022-12-11T08:43:07.083Z,21.00
2022-12-11T08:48:12.597Z,25.20
2022-12-11T08:50:45.498Z,31.80
2022-12-11T08:53:18.310Z,26.20
2022-12-11T08:55:52.073Z,27.50
2022-12-11T08:58:24.757Z,28.10
2022-12-11T09:00:56.888Z,34.40
2022-12-11T09:03:30.018Z,40.00
2022-12-11T09:11:47.037Z,24.70
2022-12-11T09:14:19.529Z,30.70
2022-12-11T09:16:52.483Z,33.00
2022-12-11T09:19:30.616Z,27.40
2022-12-11T09:22:04.424Z,26.80
2022-12-11T09:27:07.999Z,23.60
2022-12-11T09:29:40.577Z,20.30
2022-12-11T09:32:12.911Z,29.10
2022-12-11T09:34:46.731Z,19.50
2022-12-11T09:37:19.809Z,22.70
2022-12-11T09:39:52.849Z,23.10
2022-12-11T09:42:32.323Z,21.40
2022-12-11T09:45:07.210Z,22.40
2022-12-11T09:47:42.243Z,21.10
2022-12-11T09:50:20.693Z,21.80
2022-12-11T09:53:05.236Z,45.00
2022-12-11T09:55:44.428Z,68.10
2022-12-11T09:58:26.153Z,110.30
2022-12-11T10:01:05.042Z,55.10
2022-12-11T10:04:03.946Z,38.00
2022-12-11T10:06:43.137Z,20.90
2022-12-11T10:09:24.442Z,24.10
2022-12-11T10:12:09.867Z,24.10
2022-12-11T10:14:54.408Z,28.90
2022-12-11T10:17:32.167Z,35.20
2022-12-11T10:20:16.068Z,32.30
2022-12-11T10:22:49.455Z,37.80
2022-12-11T10:25:28.542Z,37.10
2022-12-11T10:28:01.500Z,31.60
2022-12-11T10:30:41.531Z,22.00
2022-12-11T10:33:22.614Z,19.60
2022-12-11T10:35:56.800Z,23.90
2022-12-11T10:38:32.240Z,23.20
2022-12-11T10:41:10.385Z,17.60
2022-12-11T10:43:44.557Z,25.60
2022-12-11T10:46:21.663Z,21.60
2022-12-11T10:48:56.740Z,18.40
2022-12-11T10:51:37.529Z,23.80
2022-12-11T10:54:19.043Z,25.00
2022-12-11T10:56:51.926Z,24.30
2022-12-11T10:59:31.205Z,22.50
2022-12-11T11:02:03.725Z,21.10
2022-12-11T11:04:44.779Z,22.10
2022-12-11T11:07:20.678Z,20.70
2022-12-11T11:10:04.724Z,16.80
2022-12-11T11:12:42.235Z,17.30
2022-12-11T11:15:18.996Z,22.20
2022-12-11T11:17:55.860Z,19.20
2022-12-11T11:20:52.180Z,17.60
2022-12-11T11:23:25.788Z,14.00
2022-12-11T11:25:59.767Z,17.10
2022-12-11T11:28:36.801Z,20.70
2022-12-11T11:31:13.073Z,21.20
2022-12-11T11:33:56.703Z,20.00
2022-12-11T11:36:34.625Z,31.20
2022-12-11T11:39:21.904Z,22.80
2022-12-11T11:42:00.122Z,18.60
2022-12-11T11:44:38.844Z,20.40
2022-12-11T11:47:16.161Z,15.80
2022-12-11T11:49:59.452Z,18.60
2022-12-11T11:52:36.704Z,16.90
2022-12-11T11:55:21.639Z,20.30
2022-12-11T11:58:02.041Z,40.70
2022-12-11T12:00:34.411Z,81.10
2022-12-11T12:03:14.498Z,59.40
2022-12-11T12:05:55.287Z,51.60
2022-12-11T12:08:41.038Z,28.80
2022-12-11T12:11:26.223Z,26.60
2022-12-11T12:14:29.194Z,22.80
2022-12-11T12:17:17.517Z,22.40
2022-12-11T12:20:00.195Z,18.80
2022-12-11T12:22:48.962Z,20.80
2022-12-11T12:25:27.236Z,21.00
2022-12-11T12:28:07.124Z,19.70
2022-12-11T12:30:57.043Z,33.00
2022-12-11T12:33:39.420Z,42.10
2022-12-11T12:36:23.988Z,85.40
2022-12-11T12:39:01.958Z,98.30
2022-12-11T12:41:44.757Z,77.10
2022-12-11T12:44:19.330Z,51.40
2022-12-11T12:47:01.886Z,24.80
2022-12-11T12:49:39.831Z,28.70
2022-12-11T12:52:16.870Z,21.20
2022-12-11T12:55:07.592Z,28.10
2022-12-11T12:57:43.341Z,25.60
2022-12-11T13:00:30.029Z,25.30
2022-12-11T13:03:14.377Z,66.40
2022-12-11T13:05:56.902Z,23.20
2022-12-11T13:08:38.966Z,19.90
2022-12-11T13:11:13.939Z,16.60
2022-12-11T13:13:54.937Z,23.50
2022-12-11T13:16:38.590Z,17.90
2022-12-11T13:19:28.174Z,19.30
2022-12-11T13:22:04.357Z,21.60
2022-12-11T13:24:46.679Z,20.40
2022-12-11T13:30:22.633Z,18.90
2022-12-11T13:33:03.247Z,19.50
2022-12-11T13:35:37.348Z,14.60
2022-12-11T13:38:17.927Z,19.80
2022-12-11T13:40:56.931Z,18.30
2022-12-11T13:43:32.428Z,19.80
2022-12-11T13:46:07.126Z,21.60
2022-12-11T13:48:45.367Z,37.50
2022-12-11T13:51:21.673Z,34.10
2022-12-11T13:54:05.683Z,36.90
2022-12-11T13:56:37.861Z,26.90
2022-12-11T13:59:24.852Z,26.60
2022-12-11T14:02:01.569Z,28.20
2022-12-11T14:04:35.137Z,18.90
2022-12-11T14:07:10.974Z,18.30
2022-12-11T14:09:47.052Z,24.20
2022-12-11T14:12:22.985Z,22.90
2022-12-11T14:14:59.299Z,33.40
2022-12-11T14:17:34.025Z,23.20
2022-12-11T14:20:16.390Z,25.80
2022-12-11T14:25:26.186Z,22.30
2022-12-11T14:27:59.230Z,22.40
2022-12-11T14:30:34.304Z,22.10
2022-12-11T14:33:07.650Z,18.80
2022-12-11T14:35:43.819Z,21.40
2022-12-11T14:38:20.970Z,21.80
2022-12-11T14:40:56.817Z,21.50
2022-12-11T14:43:35.003Z,21.30
2022-12-11T14:46:16.900Z,21.10
2022-12-11T14:49:00.422Z,21.20
2022-12-11T14:51:40.389Z,18.50
2022-12-11T14:54:22.289Z,20.20
2022-12-11T14:56:55.178Z,18.50
2022-12-11T14:59:32.256Z,15.50
2022-12-11T15:02:22.965Z,19.20
2022-12-11T15:05:14.160Z,19.40
2022-12-11T15:07:57.482Z,18.20
2022-12-11T15:10:36.787Z,18.80
2022-12-11T15:13:11.287Z,15.00
2022-12-11T15:15:50.235Z,13.00
2022-12-11T15:18:27.006Z,16.10
2022-12-11T15:21:00.863Z,17.80
2022-12-11T15:23:38.248Z,17.20
2022-12-11T15:26:10.733Z,17.00
2022-12-11T15:28:43.171Z,16.70
2022-12-11T15:31:28.533Z,16.20
2022-12-11T15:34:00.903Z,17.70
2022-12-11T15:36:36.802Z,19.30
2022-12-11T15:39:09.797Z,17.60
2022-12-11T15:41:44.769Z,18.80
2022-12-11T15:44:23.751Z,16.40
2022-12-11T15:46:56.857Z,15.70
2022-12-11T15:49:29.413Z,15.70
2022-12-11T15:52:01.566Z,16.20
2022-12-11T15:57:07.453Z,17.80
2022-12-11T15:59:40.425Z,16.70
2022-12-11T16:02:14.171Z,14.90
2022-12-11T16:04:46.341Z,15.50
2022-12-11T16:09:53.075Z,12.50
2022-12-11T16:12:25.319Z,13.50
2022-12-11T16:14:57.568Z,12.60
2022-12-11T16:20:00.479Z,12.70
2022-12-11T16:22:33.060Z,10.90
2022-12-11T16:25:06.078Z,14.10
2022-12-11T16:27:38.503Z,14.20
2022-12-11T16:30:13.305Z,14.00
2022-12-11T16:32:45.534Z,13.30
2022-12-11T16:35:19.033Z,13.70
2022-12-11T16:37:54.068Z,14.80
2022-12-11T16:40:26.503Z,14.40
2022-12-11T16:42:59.617Z,15.20
2022-12-11T16:45:32.356Z,16.70
2022-12-11T16:48:07.935Z,16.20
2022-12-11T16:50:42.383Z,12.60
2022-12-11T16:53:15.861Z,15.10
2022-12-11T16:55:48.765Z,14.70
2022-12-11T16:58:21.518Z,13.00
2022-12-11T17:01:02.139Z,14.00
2022-12-11T17:03:35.757Z,12.40
2022-12-11T17:06:11.544Z,13.10
2022-12-11T17:08:44.733Z,12.30
2022-12-11T17:11:19.668Z,12.20
2022-12-11T17:13:56.830Z,11.50
2022-12-11T17:16:31.400Z,11.50
2022-12-11T17:19:07.241Z,10.00
2022-12-11T17:21:39.483Z,11.90
2022-12-11T17:24:12.002Z,13.60
2022-12-11T17:26:44.570Z,11.30
2022-12-11T17:29:17.561Z,11.00
2022-12-11T17:31:52.053Z,11.50
2022-12-11T17:34:25.062Z,12.10
2022-12-11T17:36:57.334Z,17.10
2022-12-11T17:39:30.005Z,11.30
2022-12-11T17:42:02.626Z,10.00
2022-12-11T17:44:35.363Z,12.20
2022-12-11T17:47:11.213Z,12.50
2022-12-11T17:49:43.730Z,12.00
2022-12-11T17:52:16.363Z,12.30
2022-12-11T17:54:49.152Z,12.90
2022-12-11T17:57:21.830Z,15.80
2022-12-11T17:59:56.523Z,11.70
2022-12-11T18:02:29.039Z,12.10
2022-12-11T18:05:01.335Z,12.30
2022-12-11T18:10:05.131Z,11.60
2022-12-11T18:12:37.609Z,10.90
2022-12-11T18:15:13.132Z,11.00
2022-12-11T18:17:45.822Z,9.40
2022-12-11T18:20:18.909Z,10.00
2022-12-11T18:22:52.911Z,12.10
2022-12-11T18:25:25.460Z,13.20
2022-12-11T18:27:59.611Z,13.10
2022-12-11T18:30:31.907Z,11.50
2022-12-11T18:33:04.693Z,11.50
2022-12-11T18:35:37.635Z,11.10
2022-12-11T18:38:10.590Z,11.80
2022-12-11T18:40:42.857Z,10.20
2022-12-11T18:43:15.184Z,10.90
2022-12-11T18:45:47.526Z,10.80
2022-12-11T18:48:20.085Z,10.40
2022-12-11T18:50:53.803Z,11.10
2022-12-11T18:53:26.678Z,9.40
2022-12-11T18:56:00.750Z,11.30
2022-12-11T18:58:33.430Z,11.30
2022-12-11T19:01:12.333Z,11.50
2022-12-11T19:03:45.104Z,11.20
2022-12-11T19:06:19.497Z,12.40
2022-12-11T19:08:51.950Z,11.30
2022-12-11T19:11:25.948Z,9.10
2022-12-11T19:13:58.927Z,11.50
2022-12-11T19:16:34.645Z,11.70
2022-12-11T19:19:10.301Z,12.70
2022-12-11T19:21:43.170Z,13.40
2022-12-11T19:24:20.017Z,12.80
2022-12-11T19:26:52.714Z,13.40
2022-12-11T19:29:27.339Z,12.20
2022-12-11T19:31:59.738Z,11.80
2022-12-11T19:34:32.094Z,12.10
2022-12-11T19:37:04.317Z,11.70
2022-12-11T19:39:39.103Z,11.80
2022-12-11T19:42:11.200Z,11.10
2022-12-11T19:47:14.003Z,7.60
2022-12-11T19:52:17.192Z,11.40
2022-12-11T19:57:20.027Z,11.60
2022-12-11T19:59:57.062Z,11.00
2022-12-11T20:02:29.938Z,12.40
2022-12-11T20:05:02.053Z,9.30
2022-12-11T20:07:34.343Z,11.30
2022-12-11T20:12:37.726Z,12.00
2022-12-11T20:15:12.077Z,13.10
2022-12-11T20:17:44.753Z,12.60
2022-12-11T20:20:17.126Z,10.20
2022-12-11T20:22:52.691Z,11.10
2022-12-11T20:25:25.504Z,10.20
2022-12-11T20:27:58.303Z,11.80
2022-12-11T20:30:30.730Z,12.60
2022-12-11T20:33:03.057Z,12.40
2022-12-11T20:35:35.400Z,12.10
2022-12-11T20:38:07.906Z,12.00
2022-12-11T20:40:40.691Z,11.70
2022-12-11T20:43:14.067Z,12.80
2022-12-11T20:45:51.188Z,12.80
2022-12-11T20:48:23.372Z,11.40
2022-12-11T20:50:55.854Z,12.40
2022-12-11T20:53:29.189Z,12.80
2022-12-11T20:56:02.015Z,12.00
2022-12-11T20:58:34.593Z,11.50
2022-12-11T21:01:07.703Z,12.20
2022-12-11T21:03:42.275Z,11.90
2022-12-11T21:06:22.338Z,12.10
2022-12-11T21:08:55.327Z,10.10
2022-12-11T21:13:58.395Z,10.90
2022-12-11T21:16:30.926Z,10.60
2022-12-11T21:19:03.377Z,12.80
2022-12-11T21:21:39.878Z,12.00
2022-12-11T21:24:16.980Z,12.20
2022-12-11T21:26:49.953Z,12.50
2022-12-11T21:29:22.313Z,13.50
2022-12-11T21:31:54.988Z,12.40
2022-12-11T21:34:27.886Z,11.80
2022-12-11T21:37:00.019Z,12.10
2022-12-11T21:42:11.271Z,10.50
2022-12-11T21:47:35.874Z,11.20
2022-12-11T21:50:08.910Z,13.00
2022-12-11T21:52:41.588Z,12.20
2022-12-11T21:55:14.895Z,12.60
2022-12-11T21:57:47.089Z,12.30
2022-12-11T22:03:14.514Z,11.80
2022-12-11T22:05:46.843Z,10.10
2022-12-11T22:08:19.231Z,9.20
2022-12-11T22:10:51.516Z,13.40
2022-12-11T22:15:55.182Z,12.90
2022-12-11T22:18:28.573Z,12.50
2022-12-11T22:21:01.102Z,12.00
2022-12-11T22:23:33.441Z,13.50
2022-12-11T22:28:36.202Z,10.90
2022-12-11T22:31:12.739Z,13.20
2022-12-11T22:33:44.959Z,11.90
2022-12-11T22:36:17.871Z,13.40
2022-12-11T22:38:50.171Z,12.50
2022-12-11T22:41:26.042Z,13.70
2022-12-11T22:43:58.896Z,13.80
2022-12-11T22:46:32.392Z,12.80
2022-12-11T22:49:04.618Z,13.30
2022-12-11T22:51:37.288Z,12.80
2022-12-11T22:54:09.676Z,13.90
2022-12-11T22:56:41.958Z,13.50
2022-12-11T22:59:17.356Z,12.10
2022-12-11T23:01:49.497Z,13.50
2022-12-11T23:06:52.313Z,12.60
2022-12-11T23:09:25.184Z,12.40
2022-12-11T23:11:58.559Z,12.80
2022-12-11T23:14:31.160Z,13.70
2022-12-11T23:17:03.189Z,13.10
2022-12-11T23:19:36.411Z,13.00
2022-12-11T23:22:08.687Z,10.10
2022-12-11T23:24:40.955Z,12.40
2022-12-11T23:27:14.919Z,10.60
2022-12-11T23:29:47.049Z,13.10
2022-12-11T23:32:19.156Z,11.60
2022-12-11T23:37:21.891Z,11.60
2022-12-11T23:42:24.700Z,12.40
2022-12-11T23:47:27.367Z,10.20
2022-12-11T23:52:29.916Z,9.00
2022-12-11T23:57:32.788Z,11.20
